Time;durP1;ratioP1;P1;durP2;ratioP2;P2;SDS_P1;SDS_P2;PMS_P1;PMS_P2;Temp;Humidity;BMP_temperature;BMP_pressure;BME280_temperature;BME280_humidity;BME280_pressure;Samples;Min_cycle;Max_cycle;Signal;HPM_P1;HPM_P2
2023/07/13 00:02:24;;;;;;;5.80;0.93;;;17.40;99.90;;;;;;4998310;28;20061;-71
2023/07/13 00:04:50;;;;;;;9.40;0.80;;;17.40;99.90;;;;;;4996511;28;20492;-71
2023/07/13 00:07:19;;;;;;;4.88;1.00;;;17.40;99.90;;;;;;5003763;28;20034;-72
2023/07/13 00:09:48;;;;;;;5.93;0.80;;;17.40;99.90;;;;;;5000394;28;20038;-76
2023/07/13 00:12:28;;;;;;;9.48;1.10;;;17.30;99.90;;;;;;4998076;28;20522;-71
2023/07/13 00:14:57;;;;;;;5.25;1.50;;;17.40;99.90;;;;;;4994378;28;20690;-73
2023/07/13 00:17:23;;;;;;;9.35;1.70;;;17.40;99.90;;;;;;4997891;28;20406;-71
2023/07/13 00:19:49;;;;;;;7.85;1.13;;;17.30;99.90;;;;;;4991903;28;20164;-73
2023/07/13 00:22:14;;;;;;;2.10;0.85;;;17.20;99.90;;;;;;4993868;28;20038;-71
2023/07/13 00:24:41;;;;;;;7.22;0.80;;;17.10;99.90;;;;;;4996074;28;20384;-71
2023/07/13 00:27:09;;;;;;;3.83;0.80;;;17.00;99.90;;;;;;4994768;28;20435;-72
2023/07/13 00:29:35;;;;;;;8.77;0.73;;;16.90;99.90;;;;;;4994458;28;20651;-72
2023/07/13 00:32:01;;;;;;;7.88;0.80;;;16.90;99.90;;;;;;4993817;28;20030;-71
2023/07/13 00:34:27;;;;;;;3.92;1.08;;;16.80;99.90;;;;;;4998499;28;20042;-71
2023/07/13 00:36:52;;;;;;;7.75;0.95;;;16.70;99.90;;;;;;4994231;28;20033;-71
2023/07/13 00:39:18;;;;;;;10.38;1.45;;;16.70;99.90;;;;;;5000029;28;20121;-72
2023/07/13 00:41:44;;;;;;;8.52;0.60;;;16.60;99.90;;;;;;4995290;28;20121;-72
2023/07/13 00:44:15;;;;;;;8.00;1.23;;;16.60;99.90;;;;;;4994303;28;20088;-73
2023/07/13 00:46:40;;;;;;;5.20;1.35;;;16.60;99.90;;;;;;4995269;28;20045;-71
2023/07/13 00:49:10;;;;;;;6.38;0.82;;;16.50;99.90;;;;;;4995183;28;20030;-71
2023/07/13 00:52:02;;;;;;;6.20;0.90;;;16.50;99.90;;;;;;4996823;28;20507;-70
2023/07/13 00:54:39;;;;;;;6.38;1.50;;;16.50;99.90;;;;;;4993493;28;20057;-71
2023/07/13 00:57:09;;;;;;;6.70;1.23;;;16.50;99.90;;;;;;4995888;28;20045;-72
2023/07/13 00:59:36;;;;;;;4.10;0.75;;;16.40;99.90;;;;;;4989276;28;20073;-69
2023/07/13 01:02:03;;;;;;;8.43;1.35;;;16.40;99.90;;;;;;4993475;28;20049;-73
2023/07/13 01:04:29;;;;;;;7.07;2.50;;;16.40;99.90;;;;;;4999540;28;20041;-71
2023/07/13 01:06:56;;;;;;;5.60;1.08;;;16.40;99.90;;;;;;4991715;28;20519;-71
2023/07/13 01:09:22;;;;;;;6.38;1.48;;;16.40;99.90;;;;;;4989229;28;20046;-71
2023/07/13 01:11:49;;;;;;;6.63;0.98;;;16.40;99.90;;;;;;4994153;28;20030;-72
2023/07/13 01:14:14;;;;;;;7.65;1.25;;;16.40;99.90;;;;;;4992373;28;20408;-72
2023/07/13 01:16:43;;;;;;;8.48;1.10;;;16.50;99.90;;;;;;4993665;28;20034;-72
2023/07/13 01:19:20;;;;;;;11.25;1.27;;;16.50;99.90;;;;;;5000707;28;20038;-71
2023/07/13 01:21:50;;;;;;;15.70;1.08;;;16.50;99.90;;;;;;4994180;28;20132;-73
2023/07/13 01:24:16;;;;;;;;;;;16.50;99.90;;;;;;5002103;28;20046;-71
2023/07/13 01:26:41;;;;;;;9.07;1.80;;;16.50;99.90;;;;;;5000433;28;20386;-72
2023/07/13 01:29:07;;;;;;;5.50;1.00;;;16.60;99.90;;;;;;5005198;28;20026;-73
2023/07/13 01:31:33;;;;;;;5.88;1.30;;;16.50;99.90;;;;;;5007305;28;20049;-71
2023/07/13 01:33:58;;;;;;;5.70;1.10;;;16.50;99.90;;;;;;5006191;28;20046;-72
2023/07/13 01:36:24;;;;;;;5.07;1.20;;;16.50;99.90;;;;;;4999061;28;20101;-70
2023/07/13 01:38:50;;;;;;;6.25;1.00;;;16.50;99.90;;;;;;5000944;28;20033;-72
2023/07/13 01:41:16;;;;;;;7.28;1.70;;;16.50;99.90;;;;;;5001088;28;20496;-72
2023/07/13 01:43:42;;;;;;;9.57;1.25;;;16.50;99.90;;;;;;4998371;28;20045;-72
2023/07/13 01:46:08;;;;;;;5.85;0.98;;;16.40;99.90;;;;;;4998310;28;20492;-72
2023/07/13 01:48:33;;;;;;;5.25;1.10;;;16.40;99.90;;;;;;5001335;28;20129;-72
2023/07/13 01:50:59;;;;;;;5.78;0.75;;;16.30;99.90;;;;;;4999090;28;20501;-70
2023/07/13 01:53:25;;;;;;;8.15;0.98;;;16.30;99.90;;;;;;5000958;28;20042;-70
2023/07/13 01:55:50;;;;;;;7.43;1.05;;;16.30;99.90;;;;;;5002074;28;20042;-73
2023/07/13 01:58:16;;;;;;;5.70;1.10;;;16.30;99.90;;;;;;5000484;28;20033;-72
2023/07/13 02:00:41;;;;;;;5.05;1.00;;;16.20;99.90;;;;;;5000761;28;20038;-70
2023/07/13 02:03:07;;;;;;;11.07;1.52;;;16.20;99.90;;;;;;4999196;28;20035;-72
2023/07/13 02:05:32;;;;;;;6.75;1.10;;;16.10;99.90;;;;;;5005279;28;20072;-72
2023/07/13 02:07:58;;;;;;;4.90;1.42;;;16.10;99.90;;;;;;4993966;28;20438;-73
2023/07/13 02:10:24;;;;;;;8.27;0.88;;;16.00;99.90;;;;;;5000643;28;20037;-71
2023/07/13 02:12:51;;;;;;;5.68;1.00;;;16.00;99.90;;;;;;5001494;28;20030;-71
2023/07/13 02:15:17;;;;;;;5.10;1.05;;;16.00;99.90;;;;;;4994809;28;20038;-70
2023/07/13 02:17:43;;;;;;;6.40;1.52;;;16.00;99.90;;;;;;5000840;28;20037;-72
2023/07/13 02:20:09;;;;;;;3.88;1.08;;;16.00;99.90;;;;;;4998248;28;20038;-73
2023/07/13 02:22:35;;;;;;;7.65;1.73;;;16.00;99.90;;;;;;4999111;28;20029;-72
2023/07/13 02:25:00;;;;;;;6.85;1.27;;;15.90;99.90;;;;;;5000270;28;20103;-72
2023/07/13 02:27:26;;;;;;;7.13;0.98;;;15.90;99.90;;;;;;4990221;28;20072;-72
2023/07/13 02:29:53;;;;;;;6.38;1.75;;;15.90;99.90;;;;;;4996773;28;20065;-72
2023/07/13 02:32:18;;;;;;;12.48;1.85;;;15.90;99.90;;;;;;4998692;28;20037;-71
2023/07/13 02:34:44;;;;;;;7.60;1.35;;;15.80;99.90;;;;;;4993338;28;20805;-73
2023/07/13 02:37:10;;;;;;;9.18;1.00;;;15.80;99.90;;;;;;4997098;28;20038;-71
2023/07/13 02:39:35;;;;;;;7.47;1.10;;;15.80;99.90;;;;;;5000402;28;20106;-71
2023/07/13 02:42:01;;;;;;;10.18;1.38;;;15.80;99.90;;;;;;4999903;28;20041;-73
2023/07/13 02:44:27;;;;;;;5.88;1.52;;;15.80;99.90;;;;;;5000184;28;20133;-72
2023/07/13 02:46:52;;;;;;;4.63;0.90;;;15.70;99.90;;;;;;5003502;28;20432;-72
2023/07/13 02:49:18;;;;;;;10.50;1.33;;;15.70;99.90;;;;;;4997575;28;20108;-72
2023/07/13 02:51:43;;;;;;;6.00;1.02;;;15.70;99.90;;;;;;4995951;28;20053;-73
2023/07/13 02:54:10;;;;;;;6.25;1.88;;;15.70;99.90;;;;;;5000966;28;20061;-72
2023/07/13 02:56:35;;;;;;;11.55;1.35;;;15.70;99.90;;;;;;4996017;28;20088;-72
2023/07/13 02:59:02;;;;;;;10.43;1.85;;;15.70;99.90;;;;;;4999860;28;20038;-73
2023/07/13 03:01:28;;;;;;;6.38;1.27;;;15.70;99.90;;;;;;4995840;28;20037;-72
2023/07/13 03:03:53;;;;;;;4.50;1.45;;;15.60;99.90;;;;;;5000958;28;20042;-71
2023/07/13 03:06:19;;;;;;;6.85;1.27;;;15.60;99.90;;;;;;5000899;28;20033;-72
2023/07/13 03:08:45;;;;;;;7.85;2.08;;;15.60;99.90;;;;;;4998727;28;20041;-72
2023/07/13 03:11:13;;;;;;;8.07;1.45;;;15.60;99.90;;;;;;4999363;28;20119;-72
2023/07/13 03:13:41;;;;;;;3.38;1.00;;;15.60;99.90;;;;;;4997579;28;20407;-74
2023/07/13 03:16:07;;;;;;;7.25;0.98;;;15.60;99.90;;;;;;4995519;28;20046;-72
2023/07/13 03:18:33;;;;;;;10.10;1.17;;;15.60;99.90;;;;;;5004471;28;20038;-72
2023/07/13 03:20:59;;;;;;;6.60;1.20;;;15.60;99.90;;;;;;4995397;28;20053;-72
2023/07/13 03:23:25;;;;;;;12.02;1.10;;;15.60;99.90;;;;;;5000952;28;20492;-71
2023/07/13 03:26:08;;;;;;;10.00;1.45;;;15.60;99.90;;;;;;4994478;28;20038;-72
2023/07/13 03:28:34;;;;;;;4.30;0.90;;;15.60;99.90;;;;;;4993639;28;20494;-71
2023/07/13 03:31:02;;;;;;;8.18;1.42;;;15.60;99.90;;;;;;4998692;28;20030;-70
2023/07/13 03:33:28;;;;;;;5.10;1.42;;;15.50;99.90;;;;;;4996357;28;20119;-72
2023/07/13 03:35:53;;;;;;;7.65;1.88;;;15.50;99.90;;;;;;4999502;28;20051;-70
2023/07/13 03:38:19;;;;;;;5.45;1.10;;;15.50;99.90;;;;;;5005179;28;20030;-70
2023/07/13 03:40:45;;;;;;;5.72;1.75;;;15.50;99.90;;;;;;4993038;28;20042;-71
2023/07/13 03:43:10;;;;;;;7.35;1.77;;;15.50;99.90;;;;;;4992806;28;20042;-71
2023/07/13 03:45:38;;;;;;;6.78;1.77;;;15.50;99.90;;;;;;4994674;28;20108;-71
2023/07/13 03:48:04;;;;;;;6.75;1.25;;;15.50;99.90;;;;;;5000187;28;20030;-72
2023/07/13 03:50:31;;;;;;;10.27;2.08;;;15.50;99.90;;;;;;5000045;28;20030;-72
2023/07/13 03:52:58;;;;;;;10.48;1.77;;;15.50;99.90;;;;;;4996218;28;20030;-71
2023/07/13 03:55:24;;;;;;;7.45;1.60;;;15.50;99.90;;;;;;4993145;28;20347;-72
2023/07/13 03:57:58;;;;;;;9.93;1.92;;;15.50;99.90;;;;;;4999508;28;20045;-73
2023/07/13 04:00:23;;;;;;;7.13;1.52;;;15.50;99.90;;;;;;4998080;28;20080;-72
2023/07/13 04:02:49;;;;;;;8.60;1.83;;;15.50;99.90;;;;;;4997930;28;20034;-72
2023/07/13 04:05:15;;;;;;;15.02;2.58;;;15.50;99.90;;;;;;4998948;28;20034;-72
2023/07/13 04:07:40;;;;;;;8.40;1.90;;;15.50;99.90;;;;;;4995734;28;20518;-71
2023/07/13 04:10:07;;;;;;;15.10;3.00;;;15.50;99.90;;;;;;4999892;28;20042;-71
2023/07/13 04:12:32;;;;;;;9.60;2.53;;;15.40;99.90;;;;;;4999744;28;20076;-72
2023/07/13 04:14:58;;;;;;;14.98;2.03;;;15.50;99.90;;;;;;4998665;28;20033;-72
2023/07/13 04:17:23;;;;;;;9.27;2.53;;;15.50;99.90;;;;;;4994215;28;20054;-72
2023/07/13 04:19:49;;;;;;;9.65;1.80;;;15.50;99.90;;;;;;4995920;28;20030;-71
2023/07/13 04:22:14;;;;;;;8.05;1.75;;;15.50;99.90;;;;;;4996580;28;20520;-70
2023/07/13 04:24:40;;;;;;;5.68;1.58;;;15.50;99.90;;;;;;4994906;28;20487;-73
2023/07/13 04:27:07;;;;;;;9.10;2.50;;;15.50;99.90;;;;;;4999110;28;20124;-70
2023/07/13 04:29:32;;;;;;;12.30;2.70;;;15.50;99.90;;;;;;4997304;28;20034;-71
2023/07/13 04:31:58;;;;;;;8.32;2.15;;;15.60;99.90;;;;;;5000119;28;20395;-73
2023/07/13 04:34:24;;;;;;;11.77;1.95;;;15.60;99.90;;;;;;4996688;28;20057;-72
2023/07/13 04:36:50;;;;;;;8.45;2.08;;;15.70;99.90;;;;;;4988866;28;20026;-73
2023/07/13 04:39:16;;;;;;;12.55;1.67;;;15.70;99.90;;;;;;4998531;28;20044;-72
2023/07/13 04:41:41;;;;;;;9.30;2.30;;;15.70;99.90;;;;;;4993886;28;20038;-74
2023/07/13 04:44:07;;;;;;;10.63;2.38;;;15.70;99.90;;;;;;4996805;28;20463;-73
2023/07/13 04:46:32;;;;;;;15.20;2.55;;;15.70;99.90;;;;;;4989446;28;20038;-73
2023/07/13 04:48:58;;;;;;;12.57;2.40;;;15.80;99.90;;;;;;4996065;28;20039;-71
2023/07/13 04:51:24;;;;;;;17.00;2.80;;;15.80;99.90;;;;;;4994794;28;20503;-71
2023/07/13 04:53:50;;;;;;;13.73;2.55;;;15.90;99.90;;;;;;4994153;28;20104;-72
2023/07/13 04:56:16;;;;;;;16.60;2.50;;;15.90;99.90;;;;;;4992824;28;20659;-73
2023/07/13 04:58:41;;;;;;;10.57;2.45;;;15.90;99.90;;;;;;4994982;28;20030;-71
2023/07/13 05:01:08;;;;;;;9.70;2.10;;;16.00;99.90;;;;;;4988977;28;20038;-71
2023/07/13 05:03:35;;;;;;;16.45;2.65;;;16.00;99.90;;;;;;4991022;28;20373;-72
2023/07/13 05:06:03;;;;;;;12.85;2.95;;;16.00;99.90;;;;;;4988346;28;20100;-72
2023/07/13 05:08:29;;;;;;;9.23;2.22;;;16.10;99.90;;;;;;4988776;28;20026;-72
2023/07/13 05:10:55;;;;;;;8.77;2.17;;;16.10;99.90;;;;;;4992487;28;20451;-71
2023/07/13 05:13:21;;;;;;;15.57;2.80;;;16.20;99.90;;;;;;4993690;28;20512;-71
2023/07/13 05:16:01;;;;;;;17.27;3.22;;;16.20;99.90;;;;;;4990596;28;20034;-72
2023/07/13 05:18:28;;;;;;;16.95;2.53;;;16.30;99.90;;;;;;4988780;28;20053;-70
2023/07/13 05:20:59;;;;;;;22.90;2.90;;;16.30;99.90;;;;;;4992715;28;20483;-72
2023/07/13 05:23:24;;;;;;;9.02;1.92;;;16.40;99.90;;;;;;4988370;28;20074;-70
2023/07/13 05:25:50;;;;;;;15.60;2.72;;;16.40;99.90;;;;;;4988305;28;20061;-72
2023/07/13 05:28:15;;;;;;;13.63;3.03;;;16.50;99.90;;;;;;4990416;28;20038;-73
2023/07/13 05:30:46;;;;;;;8.70;2.47;;;16.60;99.90;;;;;;4990925;28;20045;-72
2023/07/13 05:33:12;;;;;;;15.05;2.42;;;16.60;99.90;;;;;;4988662;28;20637;-71
2023/07/13 05:35:37;;;;;;;10.57;2.58;;;16.60;99.90;;;;;;4986855;28;20031;-72
2023/07/13 05:38:03;;;;;;;11.00;2.75;;;16.70;99.90;;;;;;4993427;28;20058;-69
2023/07/13 05:40:28;;;;;;;11.50;2.33;;;16.90;99.90;;;;;;4989577;28;20034;-71
2023/07/13 05:42:54;;;;;;;14.18;2.53;;;17.00;99.90;;;;;;4990433;28;20395;-72
2023/07/13 05:45:19;;;;;;;17.92;3.30;;;17.00;99.90;;;;;;4993216;28;20120;-71
2023/07/13 05:47:45;;;;;;;13.95;2.88;;;17.20;99.90;;;;;;4993830;28;20103;-71
2023/07/13 05:50:10;;;;;;;14.38;2.40;;;17.30;99.90;;;;;;4988807;28;20034;-71
2023/07/13 05:52:36;;;;;;;12.93;2.70;;;17.60;99.90;;;;;;4991961;28;20539;-72
2023/07/13 05:55:02;;;;;;;11.65;2.35;;;17.90;99.90;;;;;;4989299;28;20496;-73
2023/07/13 05:57:28;;;;;;;10.68;2.33;;;18.20;99.90;;;;;;4986802;28;20038;-72
2023/07/13 05:59:54;;;;;;;8.77;2.05;;;18.60;99.90;;;;;;4987455;28;20534;-71
2023/07/13 06:02:19;;;;;;;10.70;2.80;;;18.90;99.90;;;;;;4993498;28;20035;-72
2023/07/13 06:04:45;;;;;;;7.00;1.77;;;19.30;99.90;;;;;;4995867;28;20108;-73
2023/07/13 06:07:10;;;;;;;13.15;2.15;;;19.40;99.90;;;;;;4989440;28;20042;-72
2023/07/13 06:09:36;;;;;;;12.73;2.58;;;19.50;99.90;;;;;;4994991;28;20042;-71
2023/07/13 06:12:01;;;;;;;12.93;2.00;;;19.60;99.90;;;;;;4997086;28;20034;-73
2023/07/13 06:14:27;;;;;;;7.63;1.63;;;19.70;99.90;;;;;;5002511;28;20136;-72
2023/07/13 06:16:52;;;;;;;12.20;1.75;;;19.90;99.90;;;;;;4997423;28;20042;-73
2023/07/13 06:19:18;;;;;;;11.60;2.22;;;20.00;99.90;;;;;;4992014;28;20046;-72
2023/07/13 06:21:44;;;;;;;14.55;2.22;;;20.10;99.90;;;;;;4992816;28;20116;-72
2023/07/13 06:24:09;;;;;;;15.23;2.80;;;20.20;99.90;;;;;;4990677;28;20038;-72
2023/07/13 06:26:35;;;;;;;8.90;2.28;;;20.30;99.90;;;;;;4997869;28;20457;-72
2023/07/13 06:29:00;;;;;;;10.65;2.40;;;20.20;99.90;;;;;;4990969;28;20043;-72
2023/07/13 06:31:26;;;;;;;14.45;2.67;;;20.00;99.90;;;;;;4992272;28;20038;-72
2023/07/13 06:33:51;;;;;;;13.13;2.08;;;20.10;99.90;;;;;;4988318;28;20045;-73
2023/07/13 06:36:17;;;;;;;12.57;3.08;;;20.20;99.90;;;;;;4992724;28;20030;-73
2023/07/13 06:38:43;;;;;;;13.75;2.97;;;20.20;99.90;;;;;;4990600;28;20560;-72
2023/07/13 06:41:08;;;;;;;7.30;1.70;;;20.00;99.90;;;;;;4993465;28;20112;-72
2023/07/13 06:43:34;;;;;;;13.77;3.20;;;19.70;99.90;;;;;;4989534;28;20058;-70
2023/07/13 06:46:00;;;;;;;12.25;2.90;;;19.30;99.90;;;;;;4990144;28;20034;-71
2023/07/13 06:48:27;;;;;;;8.90;2.50;;;19.00;99.90;;;;;;4994158;28;20053;-71
2023/07/13 06:50:53;;;;;;;21.30;3.53;;;18.70;99.90;;;;;;4993975;28;20030;-72
2023/07/13 06:53:19;;;;;;;10.50;2.75;;;18.40;99.90;;;;;;4991089;28;20385;-72
2023/07/13 06:55:45;;;;;;;17.92;3.72;;;18.00;99.90;;;;;;4993452;28;20092;-73
2023/07/13 06:58:11;;;;;;;9.05;1.92;;;17.80;99.90;;;;;;4994939;28;20041;-72
2023/07/13 07:00:36;;;;;;;5.97;1.85;;;17.70;99.90;;;;;;4995839;28;20403;-71
2023/07/13 07:03:02;;;;;;;6.78;1.95;;;17.50;99.90;;;;;;4994584;28;20034;-73
2023/07/13 07:05:28;;;;;;;6.07;1.30;;;17.30;99.90;;;;;;4999205;28;20085;-71
2023/07/13 07:07:55;;;;;;;6.20;1.90;;;17.10;99.90;;;;;;4991467;28;20584;-71
2023/07/13 07:10:21;;;;;;;8.05;1.73;;;17.00;99.90;;;;;;4996251;28;20073;-72
2023/07/13 07:12:47;;;;;;;6.82;2.38;;;16.90;99.90;;;;;;4996950;28;20035;-71
2023/07/13 07:15:14;;;;;;;9.90;2.35;;;16.90;99.90;;;;;;4994742;28;20096;-72
2023/07/13 07:17:40;;;;;;;7.53;2.13;;;16.90;99.90;;;;;;4989770;28;20034;-76
2023/07/13 07:20:06;;;;;;;10.98;3.03;;;17.00;99.90;;;;;;4997612;28;20381;-72
2023/07/13 07:22:32;;;;;;;16.38;3.28;;;17.10;99.90;;;;;;4995846;28;20066;-72
2023/07/13 07:24:58;;;;;;;7.10;2.30;;;17.00;99.90;;;;;;4992432;28;20034;-71
2023/07/13 07:27:24;;;;;;;11.27;2.88;;;17.10;99.90;;;;;;4996677;28;20570;-71
2023/07/13 07:29:50;;;;;;;19.80;3.35;;;17.10;99.90;;;;;;4993600;28;20038;-73
2023/07/13 07:32:15;;;;;;;7.47;2.30;;;17.60;99.90;;;;;;4991847;28;20629;-72
2023/07/13 07:34:41;;;;;;;10.35;2.42;;;18.20;99.90;;;;;;4996027;28;20498;-72
2023/07/13 07:37:06;;;;;;;7.10;2.00;;;18.60;99.90;;;;;;4989195;28;20038;-72
2023/07/13 07:39:32;;;;;;;11.10;2.63;;;18.80;99.90;;;;;;4992154;28;20049;-73
2023/07/13 07:41:58;;;;;;;9.57;2.30;;;18.80;99.90;;;;;;4992746;28;20109;-73
2023/07/13 07:44:24;;;;;;;9.15;3.08;;;18.90;99.90;;;;;;4997919;28;20068;-72
2023/07/13 07:46:49;;;;;;;9.82;2.55;;;19.00;99.90;;;;;;4992227;28;20066;-73
2023/07/13 07:49:15;;;;;;;11.68;2.55;;;19.10;99.90;;;;;;4994667;28;20492;-72
2023/07/13 07:51:41;;;;;;;12.02;2.78;;;19.40;99.90;;;;;;4992668;28;20069;-72
2023/07/13 07:54:06;;;;;;;18.38;2.95;;;20.40;99.90;;;;;;4993336;28;20099;-73
2023/07/13 07:56:32;;;;;;;7.43;2.10;;;21.70;99.90;;;;;;4994976;28;20073;-73
2023/07/13 07:58:58;;;;;;;9.18;2.38;;;23.00;99.90;;;;;;4990741;28;20047;-72
2023/07/13 08:01:23;;;;;;;13.13;2.63;;;23.10;99.90;;;;;;4993473;28;20887;-72
2023/07/13 08:03:49;;;;;;;9.85;2.40;;;22.70;99.90;;;;;;4991038;28;20034;-73
2023/07/13 08:06:15;;;;;;;8.30;1.70;;;22.10;99.90;;;;;;4995710;28;20043;-72
2023/07/13 08:08:40;;;;;;;5.82;1.98;;;21.80;99.90;;;;;;4983980;28;20026;-73
2023/07/13 08:11:08;;;;;;;4.47;1.13;;;21.60;99.90;;;;;;4990660;28;20034;-72
2023/07/13 08:13:33;;;;;;;5.35;1.00;;;21.20;99.90;;;;;;4990387;28;20469;-72
2023/07/13 08:15:59;;;;;;;3.22;0.70;;;20.70;99.90;;;;;;4989950;28;20041;-72
2023/07/13 08:18:25;;;;;;;2.40;0.75;;;20.20;99.90;;;;;;4991764;28;20037;-74
2023/07/13 08:20:51;;;;;;;4.72;1.38;;;19.90;99.90;;;;;;4994839;28;20035;-70
2023/07/13 08:23:17;;;;;;;2.00;0.60;;;19.60;99.90;;;;;;4991471;28;20038;-73
2023/07/13 08:25:49;;;;;;;3.42;0.70;;;19.20;99.90;;;;;;4990359;28;20053;-74
2023/07/13 08:28:15;;;;;;;2.03;0.90;;;18.70;99.90;;;;;;4989123;28;20125;-72
2023/07/13 08:30:41;;;;;;;3.83;0.57;;;18.40;99.90;;;;;;4991080;28;20168;-74
2023/07/13 08:33:06;;;;;;;3.05;0.40;;;18.20;99.90;;;;;;4988265;28;20035;-73
2023/07/13 08:35:32;;;;;;;1.77;0.65;;;18.20;99.90;;;;;;4990832;28;20129;-71
2023/07/13 08:37:58;;;;;;;2.92;1.00;;;18.10;99.90;;;;;;4993719;28;20160;-72
2023/07/13 08:40:26;;;;;;;3.33;0.70;;;18.10;99.90;;;;;;4995106;28;20120;-72
2023/07/13 08:42:58;;;;;;;7.38;0.98;;;18.10;99.90;;;;;;4986378;28;20095;-72
2023/07/13 08:45:33;;;;;;;1.83;0.55;;;18.10;99.90;;;;;;4995809;28;20038;-72
2023/07/13 08:48:08;;;;;;;5.13;1.05;;;18.10;99.90;;;;;;4991416;28;20050;-72
2023/07/13 08:50:55;;;;;;;4.18;1.25;;;18.20;99.90;;;;;;4989480;28;20046;-71
2023/07/13 08:53:24;;;;;;;9.60;1.42;;;18.40;99.90;;;;;;4990037;28;20042;-72
2023/07/13 08:55:57;;;;;;;1.58;0.82;;;18.70;99.90;;;;;;4989901;28;20042;-72
2023/07/13 08:58:28;;;;;;;3.08;0.80;;;19.10;99.90;;;;;;4994733;28;20101;-74
2023/07/13 09:01:20;;;;;;;4.15;1.25;;;19.70;99.90;;;;;;4990242;28;20550;-73
2023/07/13 09:04:01;;;;;;;2.83;0.60;;;20.20;99.90;;;;;;4987850;28;20042;-71
2023/07/13 09:06:48;;;;;;;4.03;0.95;;;20.80;99.90;;;;;;4995508;28;20089;-72
2023/07/13 09:09:26;;;;;;;5.93;1.83;;;21.10;99.90;;;;;;4990332;28;20515;-73
2023/07/13 09:12:15;;;;;;;2.75;1.27;;;21.30;99.90;;;;;;4991702;28;20133;-71
2023/07/13 09:14:54;;;;;;;3.30;1.42;;;21.60;99.90;;;;;;4990197;28;20113;-75
2023/07/13 09:17:35;;;;;;;4.53;1.25;;;22.00;99.90;;;;;;4986368;28;20523;-72
2023/07/13 09:20:31;;;;;;;2.38;0.93;;;22.20;99.90;;;;;;4991177;28;20037;-73
2023/07/13 09:23:01;;;;;;;5.97;1.60;;;22.10;99.90;;;;;;4994196;28;20026;-74
2023/07/13 09:25:30;;;;;;;8.70;2.30;;;21.60;99.90;;;;;;4990857;28;20039;-72
2023/07/13 09:28:02;;;;;;;5.78;1.45;;;20.70;99.90;;;;;;4991099;28;20785;-73
2023/07/13 09:30:39;;;;;;;3.75;0.82;;;20.00;99.90;;;;;;4990903;28;20050;-72
2023/07/13 09:33:04;;;;;;;3.85;1.10;;;19.40;99.90;;;;;;4990059;28;20030;-71
2023/07/13 09:35:30;;;;;;;2.38;0.73;;;18.90;99.90;;;;;;4990117;28;20518;-72
2023/07/13 09:38:11;;;;;;;6.90;0.98;;;18.80;99.90;;;;;;4992704;28;20035;-71
2023/07/13 09:41:01;;;;;;;9.02;1.60;;;18.60;99.90;;;;;;4989817;28;20380;-70
2023/07/13 09:43:28;;;;;;;3.28;1.45;;;18.50;99.90;;;;;;4987081;28;20046;-71
2023/07/13 09:45:55;;;;;;;6.05;1.33;;;18.50;99.90;;;;;;4990510;28;20045;-72
2023/07/13 09:48:21;;;;;;;2.92;0.80;;;18.70;99.90;;;;;;4993986;28;20069;-71
2023/07/13 09:50:47;;;;;;;5.32;1.27;;;19.10;99.90;;;;;;4994112;28;20560;-72
2023/07/13 09:53:15;;;;;;;3.92;1.23;;;19.60;99.90;;;;;;4993929;28;20033;-72
2023/07/13 09:55:42;;;;;;;5.53;1.58;;;20.00;99.90;;;;;;4993328;28;20034;-75
2023/07/13 09:58:16;;;;;;;6.90;1.60;;;20.40;99.90;;;;;;4993979;28;20038;-72
2023/07/13 10:00:44;;;;;;;5.38;1.15;;;20.80;99.90;;;;;;4986052;28;20062;-71
2023/07/13 10:03:33;;;;;;;7.57;1.27;;;21.20;99.90;;;;;;4995280;28;20050;-72
2023/07/13 10:06:12;;;;;;;4.30;1.50;;;21.40;99.90;;;;;;4992255;28;20410;-73
2023/07/13 10:08:38;;;;;;;4.40;1.30;;;21.40;99.90;;;;;;4990013;28;20034;-70
2023/07/13 10:11:29;;;;;;;3.17;0.80;;;21.10;99.90;;;;;;4991748;28;20034;-72
2023/07/13 10:13:59;;;;;;;6.13;1.02;;;20.60;99.90;;;;;;4991441;28;20034;-71
2023/07/13 10:16:27;;;;;;;1.80;0.98;;;20.40;99.90;;;;;;4992812;28;20081;-70
2023/07/13 10:19:14;;;;;;;4.15;0.80;;;20.20;99.90;;;;;;4991133;28;20036;-72
2023/07/13 10:21:54;;;;;;;4.53;1.65;;;20.20;99.90;;;;;;4994068;28;20113;-72
2023/07/13 10:24:26;;;;;;;4.53;0.82;;;20.30;99.90;;;;;;4995045;28;20045;-72
2023/07/13 10:27:04;;;;;;;3.88;0.95;;;20.40;99.90;;;;;;4998458;28;20034;-71
2023/07/13 10:29:36;;;;;;;2.05;0.63;;;20.60;99.90;;;;;;4990541;28;20058;-71
2023/07/13 10:32:03;;;;;;;3.28;0.70;;;20.80;99.90;;;;;;4990540;28;20042;-72
2023/07/13 10:34:29;;;;;;;6.53;1.00;;;21.00;99.90;;;;;;4993334;28;20021;-73
2023/07/13 10:36:55;;;;;;;2.83;0.70;;;21.30;99.90;;;;;;4995579;28;20068;-72
2023/07/13 10:39:25;;;;;;;3.67;0.50;;;21.50;99.90;;;;;;4999777;28;20030;-73
2023/07/13 10:42:01;;;;;;;2.38;0.90;;;21.60;99.90;;;;;;4993179;28;20045;-72
2023/07/13 10:44:30;;;;;;;7.38;2.22;;;21.60;99.90;;;;;;4993594;28;20038;-71
2023/07/13 10:47:03;;;;;;;2.80;0.80;;;21.70;99.90;;;;;;4989776;28;20034;-72
2023/07/13 10:49:31;;;;;;;5.95;1.23;;;21.70;99.90;;;;;;4994067;28;20089;-70
2023/07/13 10:51:57;;;;;;;2.03;0.80;;;21.80;99.90;;;;;;4991286;28;20227;-72
2023/07/13 10:54:34;;;;;;;5.47;1.65;;;21.80;99.90;;;;;;4994086;28;20166;-72
2023/07/13 10:57:20;;;;;;;6.50;0.90;;;22.00;99.90;;;;;;4988298;28;20089;-71
2023/07/13 11:00:09;;;;;;;2.45;0.95;;;22.10;99.90;;;;;;4991765;28;20040;-70
2023/07/13 11:02:34;;;;;;;8.25;1.33;;;22.00;99.90;;;;;;4990916;28;20892;-72
2023/07/13 11:05:33;;;;;;;15.57;1.38;;;21.70;99.90;;;;;;4989607;28;20041;-72
2023/07/13 11:08:20;;;;;;;2.08;0.75;;;21.50;99.90;;;;;;4988343;28;20077;-71
2023/07/13 11:10:52;;;;;;;4.55;1.30;;;21.70;99.90;;;;;;4989511;28;20046;-72
2023/07/13 11:13:47;;;;;;;3.88;1.45;;;21.90;99.90;;;;;;4993502;28;20093;-70
2023/07/13 11:16:16;;;;;;;7.28;1.67;;;21.60;99.90;;;;;;5002125;28;20034;-71
2023/07/13 11:18:46;;;;;;;8.02;1.67;;;21.20;99.90;;;;;;4999342;28;20718;-73
2023/07/13 11:21:15;;;;;;;8.25;1.30;;;21.00;99.90;;;;;;4993117;28;20034;-71
2023/07/13 11:23:51;;;;;;;4.40;1.10;;;20.80;99.90;;;;;;4987965;28;20026;-72
2023/07/13 11:26:50;;;;;;;2.67;1.08;;;20.60;99.90;;;;;;4987699;28;20042;-70
2023/07/13 11:29:24;;;;;;;3.10;0.75;;;20.70;99.90;;;;;;4989452;28;20064;-70
2023/07/13 11:31:52;;;;;;;2.10;0.90;;;20.80;99.90;;;;;;4989250;28;20064;-71
2023/07/13 11:34:30;;;;;;;6.20;0.93;;;21.00;99.90;;;;;;4987640;28;20057;-71
2023/07/13 11:36:57;;;;;;;5.95;1.83;;;21.30;99.90;;;;;;4989165;28;20030;-70
2023/07/13 11:39:33;;;;;;;2.28;1.00;;;21.40;99.90;;;;;;4990201;28;20084;-71
2023/07/13 11:42:13;;;;;;;4.78;1.33;;;21.80;99.90;;;;;;4986287;28;20085;-70
2023/07/13 11:44:57;;;;;;;6.43;0.90;;;22.40;99.90;;;;;;4990801;28;20097;-70
2023/07/13 11:47:25;;;;;;;4.35;1.02;;;22.80;99.90;;;;;;4997097;28;20095;-71
2023/07/13 11:49:56;;;;;;;3.05;1.00;;;23.10;99.90;;;;;;4997295;28;20035;-71
2023/07/13 11:52:50;;;;;;;4.82;0.60;;;23.20;99.90;;;;;;5000442;28;20026;-71
2023/07/13 11:55:18;;;;;;;2.53;0.70;;;23.30;99.90;;;;;;4995186;28;20038;-71
2023/07/13 11:58:00;;;;;;;2.47;0.93;;;23.40;99.90;;;;;;4993370;28;20050;-72
2023/07/13 12:00:29;;;;;;;3.60;1.00;;;23.30;99.90;;;;;;4986935;28;20089;-72
2023/07/13 12:02:59;;;;;;;2.55;0.75;;;23.40;99.90;;;;;;4987177;28;20026;-74
2023/07/13 12:05:25;;;;;;;4.53;0.60;;;23.70;99.90;;;;;;4993227;28;20104;-72
2023/07/13 12:07:51;;;;;;;1.77;0.40;;;23.90;99.90;;;;;;4988392;28;20401;-71
2023/07/13 12:10:19;;;;;;;8.30;0.90;;;24.10;99.90;;;;;;4993162;28;20125;-70
2023/07/13 12:12:48;;;;;;;1.85;0.90;;;24.20;99.90;;;;;;4994474;28;20035;-73
2023/07/13 12:15:14;;;;;;;1.60;0.90;;;24.30;99.90;;;;;;4993963;28;20031;-72
2023/07/13 12:17:41;;;;;;;2.20;1.00;;;24.00;99.90;;;;;;4993191;28;20041;-73
2023/07/13 12:20:23;;;;;;;2.80;0.90;;;23.90;99.90;;;;;;4992399;28;20080;-72
2023/07/13 12:22:50;;;;;;;3.67;0.88;;;23.90;99.90;;;;;;4996096;28;20558;-75
2023/07/13 12:25:17;;;;;;;2.08;0.65;;;23.90;99.90;;;;;;4990325;28;20045;-73
2023/07/13 12:27:49;;;;;;;1.30;0.70;;;23.80;99.90;;;;;;4994335;28;20527;-70
2023/07/13 12:30:30;;;;;;;8.80;1.30;;;23.70;99.90;;;;;;4992613;28;20038;-72
2023/07/13 12:33:10;;;;;;;3.75;0.80;;;23.60;99.90;;;;;;4988193;28;20554;-72
2023/07/13 12:35:44;;;;;;;2.58;0.73;;;23.50;99.90;;;;;;4991910;28;20050;-72
2023/07/13 12:38:11;;;;;;;5.60;0.93;;;23.40;99.90;;;;;;4991843;28;20034;-71
2023/07/13 12:40:37;;;;;;;2.88;0.65;;;23.20;99.90;;;;;;4990760;28;20073;-73
2023/07/13 12:43:04;;;;;;;3.75;0.68;;;23.10;99.90;;;;;;4989815;28;20034;-71
2023/07/13 12:45:30;;;;;;;4.55;0.57;;;23.20;99.90;;;;;;4992520;28;20416;-69
2023/07/13 12:48:09;;;;;;;3.00;0.65;;;23.30;99.90;;;;;;4991167;28;20108;-71
2023/07/13 12:50:43;;;;;;;3.53;1.00;;;23.20;99.90;;;;;;4988569;28;20041;-71
2023/07/13 12:53:18;;;;;;;2.22;0.73;;;23.20;99.90;;;;;;4988631;28;20030;-73
2023/07/13 12:55:59;;;;;;;2.10;0.68;;;23.10;99.90;;;;;;4993601;28;20104;-70